Albany, Georgia
Current Conditions -  °F | °C
As of 3:53 PM on Saturday 22 Nov 2014 (Local Time) from KABY Reporting Station
Overcast Overcast  
Wind Chill: 19°   Ceiling: 4100
Heat Index: 19°   Visibility: 10mi
Dew Point: 12°   Wind: 13mph
Humidity: 61%   Direction: 100°E
Pressure: 30.23"   Gusts: NA
Location:  31.58°N, 84.15°W
Report Text: KABY 222053Z 10011KT 10SM SCT035 BKN041 OVC055 19/12 A3023 RMK AO2 SLP236 T01940117 56028 $
Loading
Personal Weather Stations






























Interactive Weather Map New forecast layout! Learn more

10-Day Weather Forecast

Advertisements
Track Severe Weather on mobile